createdAt,value
2018-09-03T00:00:31.301Z,7.40
2018-09-03T00:02:58.608Z,6.40
2018-09-03T00:05:25.945Z,6.87
2018-09-03T00:07:53.333Z,6.90
2018-09-03T00:10:20.585Z,7.30
2018-09-03T00:12:47.864Z,7.33
2018-09-03T00:15:15.121Z,7.67
2018-09-03T00:17:42.391Z,7.67
2018-09-03T00:20:09.678Z,7.37
2018-09-03T00:22:37.253Z,7.67
2018-09-03T00:25:05.258Z,7.13
2018-09-03T00:27:32.519Z,7.50
2018-09-03T00:29:59.779Z,10.10
2018-09-03T00:32:32.632Z,8.10
2018-09-03T00:35:06.781Z,9.00
2018-09-03T00:37:39.965Z,9.27
2018-09-03T00:40:12.897Z,9.30
2018-09-03T00:42:45.928Z,9.53
2018-09-03T00:45:18.918Z,9.90
2018-09-03T00:47:46.276Z,9.37
2018-09-03T00:50:14.053Z,10.07
2018-09-03T00:52:41.406Z,10.07
2018-09-03T00:55:08.745Z,11.77
2018-09-03T00:57:35.945Z,10.47
2018-09-03T01:00:03.175Z,10.07
2018-09-03T01:02:30.459Z,11.40
2018-09-03T01:04:58.437Z,11.50
2018-09-03T01:07:25.818Z,11.83
2018-09-03T01:09:53.147Z,11.53
2018-09-03T01:12:20.526Z,12.17
2018-09-03T01:14:47.878Z,12.57
2018-09-03T01:17:15.275Z,13.80
2018-09-03T01:19:42.665Z,13.57
2018-09-03T01:22:09.885Z,12.30
2018-09-03T01:24:37.138Z,15.87
2018-09-03T01:27:04.439Z,13.53
2018-09-03T01:29:32.382Z,13.30
2018-09-03T01:31:59.682Z,13.40
2018-09-03T01:34:27.079Z,18.27
2018-09-03T01:36:54.882Z,13.83
2018-09-03T01:39:23.113Z,13.53
2018-09-03T01:41:50.328Z,14.33
2018-09-03T01:44:17.579Z,15.67
2018-09-03T01:46:44.888Z,14.73
2018-09-03T01:49:12.255Z,15.40
2018-09-03T01:51:40.111Z,15.63
2018-09-03T01:54:08.089Z,16.93
2018-09-03T01:56:35.516Z,20.77
2018-09-03T01:59:02.824Z,16.73
2018-09-03T02:01:30.203Z,16.90
2018-09-03T02:03:57.438Z,16.93
2018-09-03T02:06:24.754Z,21.87
2018-09-03T02:08:52.050Z,15.90
2018-09-03T02:11:19.298Z,22.40
2018-09-03T02:13:46.611Z,17.50
2018-09-03T02:16:13.920Z,18.73
2018-09-03T02:18:41.217Z,18.80
2018-09-03T02:21:08.904Z,19.43
2018-09-03T02:23:37.148Z,19.90
2018-09-03T02:26:04.502Z,20.63
2018-09-03T02:28:32.286Z,21.23
2018-09-03T02:30:59.642Z,20.03
2018-09-03T02:33:26.913Z,19.43
2018-09-03T02:35:54.163Z,21.33
2018-09-03T02:38:21.624Z,23.60
2018-09-03T02:40:48.913Z,23.23
2018-09-03T02:43:16.184Z,22.27
2018-09-03T02:45:43.494Z,21.90
2018-09-03T02:48:10.776Z,28.80
2018-09-03T02:50:38.075Z,23.17
2018-09-03T02:53:05.439Z,23.37
2018-09-03T02:55:32.706Z,22.27
2018-09-03T02:58:00.315Z,22.17
2018-09-03T03:00:27.549Z,29.07
2018-09-03T03:02:57.390Z,21.93
2018-09-03T03:05:24.837Z,30.27
2018-09-03T03:07:52.918Z,29.73
2018-09-03T03:10:20.168Z,23.97
2018-09-03T03:12:47.437Z,31.80
2018-09-03T03:15:14.753Z,24.10
2018-09-03T03:17:41.993Z,25.37
2018-09-03T03:20:09.309Z,24.40
2018-09-03T03:22:36.661Z,23.30
2018-09-03T03:25:03.965Z,29.23
2018-09-03T03:27:31.204Z,23.10
2018-09-03T03:29:58.421Z,22.27
2018-09-03T03:32:25.771Z,22.00
2018-09-03T03:34:53.165Z,22.70
2018-09-03T03:37:20.539Z,26.17
2018-09-03T03:39:48.360Z,21.23
2018-09-03T03:42:15.702Z,22.00
2018-09-03T03:44:43.127Z,20.53
2018-09-03T03:47:10.357Z,26.50
2018-09-03T03:49:37.691Z,19.97
2018-09-03T03:52:05.235Z,26.00
2018-09-03T03:54:32.514Z,26.70
2018-09-03T03:56:59.805Z,21.87
2018-09-03T03:59:27.138Z,21.57
2018-09-03T04:01:54.464Z,20.33
2018-09-03T04:04:21.916Z,25.80
2018-09-03T04:06:49.240Z,20.83
2018-09-03T04:09:16.471Z,22.07
2018-09-03T04:11:43.739Z,21.77
2018-09-03T04:14:11.677Z,21.97
2018-09-03T04:16:38.958Z,20.53
2018-09-03T04:19:06.248Z,20.80
2018-09-03T04:21:33.529Z,20.00
2018-09-03T04:24:00.930Z,25.67
2018-09-03T04:26:28.217Z,20.33
2018-09-03T04:28:55.558Z,20.43
2018-09-03T04:31:23.115Z,20.53
2018-09-03T04:33:50.388Z,20.67
2018-09-03T04:36:18.069Z,18.97
2018-09-03T04:38:45.368Z,19.70
2018-09-03T04:41:12.700Z,18.57
2018-09-03T04:43:39.985Z,23.90
2018-09-03T04:46:07.650Z,18.57
2018-09-03T04:48:34.973Z,21.60
2018-09-03T04:51:02.245Z,20.60
2018-09-03T04:53:29.562Z,20.13
2018-09-03T04:55:57.061Z,19.60
2018-09-03T04:58:24.326Z,18.87
2018-09-03T05:00:52.229Z,18.50
2018-09-03T05:03:19.562Z,18.97
2018-09-03T05:05:47.066Z,18.70
2018-09-03T05:08:14.765Z,20.43
2018-09-03T05:10:42.022Z,19.77
2018-09-03T05:13:09.273Z,19.57
2018-09-03T05:15:36.576Z,19.53
2018-09-03T05:18:04.773Z,18.80
2018-09-03T05:20:32.259Z,17.13
2018-09-03T05:23:00.241Z,17.67
2018-09-03T05:25:27.607Z,16.07
2018-09-03T05:27:55.502Z,16.60
2018-09-03T05:30:23.111Z,16.37
2018-09-03T05:32:50.492Z,15.53
2018-09-03T05:35:17.779Z,15.30
2018-09-03T05:37:45.046Z,15.30
2018-09-03T05:40:12.331Z,16.00
2018-09-03T05:42:39.702Z,16.97
2018-09-03T05:45:06.933Z,14.20
2018-09-03T05:47:34.256Z,15.23
2018-09-03T05:50:01.684Z,13.73
2018-09-03T05:52:29.078Z,14.17
2018-09-03T05:54:56.515Z,13.07
2018-09-03T05:57:23.933Z,13.97
2018-09-03T05:59:51.235Z,13.07
2018-09-03T06:02:18.512Z,13.17
2018-09-03T06:04:45.964Z,13.00
2018-09-03T06:07:13.215Z,13.70
2018-09-03T06:09:40.553Z,12.60
2018-09-03T06:12:07.869Z,11.97
2018-09-03T06:14:35.115Z,13.10
2018-09-03T06:17:03.120Z,12.73
2018-09-03T06:19:30.415Z,13.20
2018-09-03T06:21:57.779Z,13.07
2018-09-03T06:24:25.011Z,12.13
2018-09-03T06:26:52.341Z,10.87
2018-09-03T06:29:19.615Z,12.07
2018-09-03T06:31:46.944Z,12.10
2018-09-03T06:34:14.165Z,12.17
2018-09-03T06:36:41.436Z,11.37
2018-09-03T06:39:08.755Z,11.90
2018-09-03T06:41:36.025Z,11.93
2018-09-03T06:44:03.258Z,11.60
2018-09-03T06:46:30.573Z,10.30
2018-09-03T06:48:58.578Z,11.47
2018-09-03T06:51:26.140Z,11.70
2018-09-03T06:53:53.878Z,10.20
2018-09-03T06:56:21.325Z,11.27
2018-09-03T06:58:48.669Z,11.37
2018-09-03T07:01:16.139Z,10.23
2018-09-03T07:03:43.746Z,11.07
2018-09-03T07:06:11.184Z,10.53
2018-09-03T07:08:38.966Z,10.30
2018-09-03T07:11:06.214Z,10.93
2018-09-03T07:13:33.477Z,11.50
2018-09-03T07:16:00.734Z,11.13
2018-09-03T07:18:28.095Z,10.70
2018-09-03T07:20:55.330Z,10.37
2018-09-03T07:23:22.629Z,10.03
2018-09-03T07:25:49.921Z,10.07
2018-09-03T07:28:17.217Z,9.97
2018-09-03T07:30:44.500Z,10.40
2018-09-03T07:33:11.903Z,10.13
2018-09-03T07:35:39.238Z,9.97
2018-09-03T07:38:13.449Z,11.00
2018-09-03T07:40:40.855Z,9.97
2018-09-03T07:43:08.379Z,9.23
2018-09-03T07:45:35.791Z,10.30
2018-09-03T07:48:03.398Z,10.50
2018-09-03T07:50:30.810Z,10.23
2018-09-03T07:52:58.159Z,10.00
2018-09-03T07:55:25.442Z,9.70
2018-09-03T07:57:52.688Z,9.20
2018-09-03T08:00:19.956Z,9.83
2018-09-03T08:02:47.295Z,9.43
2018-09-03T08:05:14.721Z,10.03
2018-09-03T08:07:42.687Z,10.00
2018-09-03T08:10:10.062Z,9.77
2018-09-03T08:12:37.645Z,10.13
2018-09-03T08:15:05.030Z,9.10
2018-09-03T08:17:32.328Z,9.57
2018-09-03T08:19:59.713Z,10.07
2018-09-03T08:22:27.018Z,9.80
2018-09-03T08:24:54.397Z,10.33
2018-09-03T08:27:21.670Z,10.60
2018-09-03T08:29:48.951Z,9.00
2018-09-03T08:32:16.306Z,9.37
2018-09-03T08:34:44.146Z,9.70
2018-09-03T08:37:11.378Z,9.90
2018-09-03T08:39:38.768Z,9.43
2018-09-03T08:42:06.935Z,9.50
2018-09-03T08:44:34.601Z,9.67
2018-09-03T08:47:02.643Z,9.30
2018-09-03T08:49:29.917Z,9.23
2018-09-03T08:51:57.257Z,9.33
2018-09-03T08:54:25.034Z,9.47
2018-09-03T08:56:52.427Z,9.60
2018-09-03T08:59:19.758Z,8.73
2018-09-03T09:01:47.074Z,9.07
2018-09-03T09:04:15.074Z,9.43
2018-09-03T09:06:42.379Z,8.90
2018-09-03T09:09:09.656Z,8.97
2018-09-03T09:11:36.998Z,8.97
2018-09-03T09:14:04.409Z,8.07
2018-09-03T09:16:32.321Z,9.03
2018-09-03T09:18:59.857Z,9.13
2018-09-03T09:21:27.144Z,8.00
2018-09-03T09:23:54.498Z,8.53
2018-09-03T09:26:22.219Z,8.63
2018-09-03T09:28:49.532Z,9.03
2018-09-03T09:31:16.797Z,8.90
2018-09-03T09:33:44.052Z,8.27
2018-09-03T09:36:11.342Z,8.73
2018-09-03T09:38:38.838Z,8.63
2018-09-03T09:41:06.304Z,8.03
2018-09-03T09:43:33.651Z,8.97
2018-09-03T09:46:01.109Z,8.37
2018-09-03T09:48:28.970Z,8.97
2018-09-03T09:50:56.513Z,9.23
2018-09-03T09:53:23.859Z,9.50
2018-09-03T09:55:51.240Z,8.90
2018-09-03T09:58:18.582Z,9.33
2018-09-03T10:00:51.637Z,9.10
2018-09-03T10:03:18.907Z,10.37
2018-09-03T10:05:46.424Z,8.47
2018-09-03T10:08:13.736Z,8.37
2018-09-03T10:10:41.121Z,8.23
2018-09-03T10:13:08.437Z,8.47
2018-09-03T10:15:35.831Z,8.67
2018-09-03T10:18:03.133Z,7.80
2018-09-03T10:20:30.656Z,7.53
2018-09-03T10:22:58.107Z,8.37
2018-09-03T10:25:25.552Z,8.00
2018-09-03T10:27:52.893Z,7.47
2018-09-03T10:30:20.231Z,8.90
2018-09-03T10:32:47.652Z,7.50
2018-09-03T10:35:15.455Z,7.93
2018-09-03T10:37:42.855Z,7.53
2018-09-03T10:40:10.376Z,7.70
2018-09-03T10:42:37.753Z,7.50
2018-09-03T10:45:05.082Z,7.67
2018-09-03T10:47:32.973Z,7.63
2018-09-03T10:50:00.310Z,7.60
2018-09-03T10:52:27.790Z,7.90
2018-09-03T10:54:55.188Z,7.87
2018-09-03T10:57:22.575Z,7.93
2018-09-03T10:59:49.904Z,8.03
2018-09-03T11:02:17.264Z,7.03
2018-09-03T11:04:44.656Z,6.97
2018-09-03T11:07:12.562Z,7.90
2018-09-03T11:09:39.880Z,7.97
2018-09-03T11:12:07.370Z,7.53
2018-09-03T11:14:34.692Z,7.47
2018-09-03T11:17:01.966Z,8.97
2018-09-03T11:19:31.275Z,7.80
2018-09-03T11:21:58.514Z,7.83
2018-09-03T11:24:26.802Z,7.93
2018-09-03T11:26:54.225Z,7.40
2018-09-03T11:29:21.427Z,8.23
2018-09-03T11:31:48.748Z,8.07
2018-09-03T11:34:16.129Z,7.83
2018-09-03T11:36:43.501Z,8.30
2018-09-03T11:39:11.670Z,9.27
2018-09-03T11:41:39.024Z,8.17
2018-09-03T11:44:06.294Z,9.53
2018-09-03T11:46:34.558Z,8.83
2018-09-03T11:49:01.926Z,9.77
2018-09-03T11:51:29.189Z,8.70
2018-09-03T11:53:56.533Z,9.73
2018-09-03T11:56:23.925Z,9.17
2018-09-03T11:58:51.260Z,10.63
2018-09-03T12:01:18.726Z,10.37
2018-09-03T12:03:45.978Z,11.03
2018-09-03T12:06:13.238Z,10.77
2018-09-03T12:08:40.563Z,10.50
2018-09-03T12:11:07.900Z,11.37
2018-09-03T12:13:35.158Z,9.23
2018-09-03T12:16:07.395Z,9.70
2018-09-03T12:18:34.710Z,10.87
2018-09-03T12:21:02.099Z,9.27
2018-09-03T12:23:29.497Z,10.67
2018-09-03T12:25:56.885Z,10.80
2018-09-03T12:28:24.203Z,11.63
2018-09-03T12:30:51.641Z,12.83
2018-09-03T12:33:18.890Z,11.57
2018-09-03T12:35:46.807Z,11.33
2018-09-03T12:38:14.765Z,10.13
2018-09-03T12:40:42.026Z,9.87
2018-09-03T12:43:09.364Z,11.40
2018-09-03T12:45:42.189Z,11.23
2018-09-03T12:48:09.442Z,10.47
2018-09-03T12:50:36.776Z,9.83
2018-09-03T12:53:04.030Z,9.17
2018-09-03T12:55:31.306Z,9.90
2018-09-03T12:57:58.581Z,9.00
2018-09-03T13:00:26.501Z,9.53
2018-09-03T13:02:53.801Z,8.93
2018-09-03T13:05:21.051Z,9.03
2018-09-03T13:07:48.373Z,9.33
2018-09-03T13:10:15.753Z,9.40
2018-09-03T13:12:43.061Z,9.83
2018-09-03T13:15:10.493Z,10.07
2018-09-03T13:17:37.818Z,9.63
2018-09-03T13:20:05.334Z,10.07
2018-09-03T13:22:32.576Z,9.97
2018-09-03T13:24:59.962Z,8.77
2018-09-03T13:27:27.293Z,9.70
2018-09-03T13:29:54.563Z,9.63
2018-09-03T13:32:21.862Z,10.87
2018-09-03T13:34:49.179Z,9.90
2018-09-03T13:37:17.137Z,9.67
2018-09-03T13:39:44.405Z,9.67
2018-09-03T13:42:11.756Z,11.33
2018-09-03T13:44:39.069Z,11.90
2018-09-03T13:47:06.463Z,11.37
2018-09-03T13:49:33.750Z,11.13
2018-09-03T13:52:01.014Z,10.20
2018-09-03T13:54:29.041Z,10.50
2018-09-03T13:56:56.644Z,9.97
2018-09-03T13:59:24.015Z,9.50
2018-09-03T14:01:51.392Z,8.90
2018-09-03T14:04:18.715Z,8.37
2018-09-03T14:06:46.082Z,8.23
2018-09-03T14:09:13.355Z,7.80
2018-09-03T14:11:40.654Z,8.17
2018-09-03T14:14:07.860Z,7.20
2018-09-03T14:16:35.191Z,8.43
2018-09-03T14:19:02.517Z,8.57
2018-09-03T14:21:29.838Z,7.67
2018-09-03T14:23:57.126Z,7.77
2018-09-03T14:26:24.500Z,6.93
2018-09-03T14:28:51.870Z,7.73
2018-09-03T14:31:19.551Z,8.27
2018-09-03T14:33:46.998Z,7.73
2018-09-03T14:36:14.315Z,7.70
2018-09-03T14:38:41.616Z,7.93
2018-09-03T14:41:08.878Z,7.80
2018-09-03T14:43:36.177Z,8.43
2018-09-03T14:46:03.489Z,8.00
2018-09-03T14:48:30.906Z,8.30
2018-09-03T14:50:58.236Z,8.27
2018-09-03T14:53:26.473Z,8.60
2018-09-03T14:55:54.158Z,8.50
2018-09-03T14:58:22.474Z,8.00
2018-09-03T15:00:50.023Z,8.10
2018-09-03T15:03:17.297Z,8.53
2018-09-03T15:05:44.649Z,8.10
2018-09-03T15:08:12.079Z,7.97
2018-09-03T15:10:39.309Z,7.80
2018-09-03T15:13:06.561Z,7.50
2018-09-03T15:15:34.765Z,6.97
2018-09-03T15:18:02.097Z,6.90
2018-09-03T15:20:29.490Z,7.17
2018-09-03T15:22:57.305Z,7.07
2018-09-03T15:25:24.628Z,7.17
2018-09-03T15:27:52.215Z,6.87
2018-09-03T15:30:20.348Z,6.90
2018-09-03T15:32:48.206Z,6.67
2018-09-03T15:35:15.531Z,7.77
2018-09-03T15:37:43.160Z,7.70
2018-09-03T15:40:10.483Z,7.07
2018-09-03T15:42:37.838Z,7.10
2018-09-03T15:45:05.355Z,6.93
2018-09-03T15:47:33.368Z,7.17
2018-09-03T15:50:00.632Z,7.13
2018-09-03T15:52:27.979Z,6.67
2018-09-03T15:54:55.560Z,7.90
2018-09-03T15:57:22.887Z,7.13
2018-09-03T15:59:50.269Z,7.77
2018-09-03T16:02:17.585Z,7.40
2018-09-03T16:04:45.013Z,7.80
2018-09-03T16:07:12.453Z,8.40
2018-09-03T16:09:39.810Z,7.93
2018-09-03T16:12:07.249Z,7.60
2018-09-03T16:14:34.586Z,7.67
2018-09-03T16:17:01.855Z,8.00
2018-09-03T16:19:29.230Z,8.53
2018-09-03T16:21:56.660Z,8.10
2018-09-03T16:24:23.911Z,8.43
2018-09-03T16:26:51.595Z,8.43
2018-09-03T16:29:18.926Z,8.50
2018-09-03T16:31:46.200Z,8.63
2018-09-03T16:34:13.486Z,8.97
2018-09-03T16:36:40.820Z,8.73
2018-09-03T16:39:08.168Z,7.87
2018-09-03T16:41:35.533Z,8.03
2018-09-03T16:44:02.819Z,8.30
2018-09-03T16:46:30.084Z,8.10
2018-09-03T16:48:57.475Z,8.53
2018-09-03T16:51:24.850Z,8.70
2018-09-03T16:53:52.156Z,8.77
2018-09-03T16:56:19.512Z,8.93
2018-09-03T16:58:46.849Z,8.20
2018-09-03T17:01:14.274Z,8.77
2018-09-03T17:03:41.471Z,8.60
2018-09-03T17:06:08.725Z,8.03
2018-09-03T17:08:36.109Z,8.03
2018-09-03T17:11:03.464Z,7.73
2018-09-03T17:13:30.773Z,7.93
2018-09-03T17:15:58.703Z,8.20
2018-09-03T17:18:26.007Z,8.43
2018-09-03T17:20:53.306Z,8.40
2018-09-03T17:23:20.650Z,8.43
2018-09-03T17:25:48.105Z,8.27
2018-09-03T17:28:15.391Z,8.23
2018-09-03T17:30:42.746Z,7.60
2018-09-03T17:33:10.035Z,8.20
2018-09-03T17:35:37.425Z,8.70
2018-09-03T17:38:04.785Z,9.23
2018-09-03T17:40:32.220Z,9.83
2018-09-03T17:42:59.548Z,9.53
2018-09-03T17:45:26.930Z,10.63
2018-09-03T17:47:54.306Z,11.30
2018-09-03T17:50:22.277Z,9.93
2018-09-03T17:52:49.601Z,10.70
2018-09-03T17:55:16.880Z,11.73
2018-09-03T17:57:44.255Z,11.30
2018-09-03T18:00:11.555Z,10.83
2018-09-03T18:02:38.824Z,10.77
2018-09-03T18:05:06.198Z,11.50
2018-09-03T18:07:34.185Z,11.60
2018-09-03T18:10:01.500Z,11.30
2018-09-03T18:12:28.878Z,11.97
2018-09-03T18:14:56.295Z,11.17
2018-09-03T18:17:23.767Z,11.43
2018-09-03T18:19:51.244Z,11.53
2018-09-03T18:22:19.191Z,11.37
2018-09-03T18:24:46.506Z,12.20
2018-09-03T18:27:14.609Z,11.90
2018-09-03T18:29:41.950Z,12.40
2018-09-03T18:32:09.402Z,12.60
2018-09-03T18:34:36.938Z,13.17
2018-09-03T18:37:04.529Z,12.97
2018-09-03T18:39:32.396Z,12.87
2018-09-03T18:42:00.560Z,12.83
2018-09-03T18:44:27.991Z,13.10
2018-09-03T18:46:55.946Z,13.97
2018-09-03T18:49:23.381Z,13.20
2018-09-03T18:51:50.847Z,13.43
2018-09-03T18:54:18.481Z,14.20
2018-09-03T18:56:46.103Z,13.43
2018-09-03T18:59:13.763Z,13.87
2018-09-03T19:01:41.218Z,13.83
2018-09-03T19:04:08.646Z,13.70
2018-09-03T19:06:36.236Z,13.87
2018-09-03T19:09:04.869Z,13.03
2018-09-03T19:11:32.102Z,14.37
2018-09-03T19:13:59.696Z,14.50
2018-09-03T19:16:27.414Z,14.13
2018-09-03T19:18:54.806Z,14.30
2018-09-03T19:21:22.070Z,15.33
2018-09-03T19:23:49.755Z,15.37
2018-09-03T19:26:17.401Z,14.93
2018-09-03T19:28:45.109Z,15.13
2018-09-03T19:31:12.429Z,14.63
2018-09-03T19:33:39.866Z,15.77
2018-09-03T19:36:07.162Z,15.47
2018-09-03T19:38:34.467Z,16.40
2018-09-03T19:41:02.550Z,16.53
2018-09-03T19:43:29.909Z,16.23
2018-09-03T19:45:57.251Z,17.47
2018-09-03T19:48:24.537Z,17.83
2018-09-03T19:50:51.909Z,16.87
2018-09-03T19:53:19.386Z,17.27
2018-09-03T19:55:46.787Z,18.00
2018-09-03T19:58:13.987Z,19.80
2018-09-03T20:00:41.375Z,20.17
2018-09-03T20:03:08.734Z,18.70
2018-09-03T20:05:36.220Z,19.03
2018-09-03T20:08:03.457Z,19.43
2018-09-03T20:10:30.785Z,18.67
2018-09-03T20:12:58.080Z,19.73
2018-09-03T20:15:26.302Z,20.70
2018-09-03T20:17:54.192Z,22.07
2018-09-03T20:20:21.732Z,21.03
2018-09-03T20:22:49.069Z,20.23
2018-09-03T20:25:16.424Z,20.20
2018-09-03T20:27:43.747Z,19.40
2018-09-03T20:30:11.148Z,19.47
2018-09-03T20:32:38.462Z,18.13
2018-09-03T20:35:05.808Z,18.57
2018-09-03T20:37:33.068Z,17.33
2018-09-03T20:40:00.841Z,19.50
2018-09-03T20:42:28.190Z,17.27
2018-09-03T20:44:55.719Z,16.17
2018-09-03T20:47:23.088Z,16.47
2018-09-03T20:49:50.463Z,16.50
2018-09-03T20:52:17.859Z,16.83
2018-09-03T20:54:45.163Z,16.53
2018-09-03T20:57:12.667Z,15.47
2018-09-03T20:59:40.079Z,16.27
2018-09-03T21:02:07.474Z,16.77
2018-09-03T21:04:34.776Z,15.70
2018-09-03T21:07:02.109Z,15.90
2018-09-03T21:09:29.560Z,16.37
2018-09-03T21:11:56.927Z,16.67
2018-09-03T21:14:24.202Z,16.03
2018-09-03T21:16:51.484Z,16.97
2018-09-03T21:19:18.788Z,17.27
2018-09-03T21:21:46.045Z,16.47
2018-09-03T21:24:13.298Z,16.80
2018-09-03T21:26:40.546Z,16.33
2018-09-03T21:29:08.489Z,16.67
2018-09-03T21:31:35.818Z,16.67
2018-09-03T21:34:03.196Z,16.97
2018-09-03T21:36:30.541Z,15.67
2018-09-03T21:38:58.434Z,16.60
2018-09-03T21:41:25.769Z,16.03
2018-09-03T21:43:53.068Z,17.03
2018-09-03T21:46:20.695Z,16.10
2018-09-03T21:48:47.981Z,17.70
2018-09-03T21:51:15.297Z,16.83
2018-09-03T21:56:16.715Z,16.90
2018-09-03T21:58:43.985Z,18.33
2018-09-03T22:01:11.241Z,18.20
2018-09-03T22:03:38.594Z,18.70
2018-09-03T22:06:06.970Z,20.00
2018-09-03T22:08:35.005Z,21.30
2018-09-03T22:11:02.445Z,20.13
2018-09-03T22:13:30.859Z,20.23
2018-09-03T22:15:58.663Z,23.97
2018-09-03T22:18:26.148Z,22.70
2018-09-03T22:20:54.202Z,24.80
2018-09-03T22:23:21.842Z,25.17
2018-09-03T22:25:49.269Z,25.93
2018-09-03T22:28:16.659Z,26.90
2018-09-03T22:30:44.004Z,26.73
2018-09-03T22:33:11.333Z,27.67
2018-09-03T22:35:38.896Z,29.67
2018-09-03T22:38:06.193Z,27.93
2018-09-03T22:40:33.887Z,28.97
2018-09-03T22:43:01.312Z,30.47
2018-09-03T22:45:29.285Z,29.60
2018-09-03T22:47:56.622Z,28.97
2018-09-03T22:50:24.590Z,30.70
2018-09-03T22:52:52.360Z,30.23
2018-09-03T22:55:19.832Z,30.73
2018-09-03T22:57:47.723Z,31.17
2018-09-03T23:00:15.328Z,30.90
2018-09-03T23:02:45.354Z,31.77
2018-09-03T23:05:12.727Z,32.70
2018-09-03T23:07:40.040Z,32.40
2018-09-03T23:10:07.838Z,32.30
2018-09-03T23:12:35.228Z,34.80
2018-09-03T23:15:02.702Z,31.97
2018-09-03T23:17:30.528Z,32.73
2018-09-03T23:19:57.921Z,32.13
2018-09-03T23:22:25.235Z,33.80
2018-09-03T23:24:52.714Z,33.80
2018-09-03T23:27:19.958Z,34.87
2018-09-03T23:29:47.325Z,35.30
2018-09-03T23:32:14.698Z,36.17
2018-09-03T23:34:41.949Z,36.60
2018-09-03T23:37:09.421Z,35.70
2018-09-03T23:39:36.859Z,36.07
2018-09-03T23:42:04.208Z,34.67
2018-09-03T23:44:31.505Z,35.77
2018-09-03T23:46:58.757Z,34.83
2018-09-03T23:49:26.050Z,35.50
2018-09-03T23:51:53.314Z,35.97
2018-09-03T23:54:20.669Z,35.47
2018-09-03T23:56:47.913Z,35.80
2018-09-03T23:59:15.173Z,32.80
